Time;durP1;ratioP1;P1;durP2;ratioP2;P2;SDS_P1;SDS_P2;PMS_P1;PMS_P2;Temp;Humidity;BMP_temperature;BMP_pressure;BME280_temperature;BME280_humidity;BME280_pressure;Samples;Min_cycle;Max_cycle;Signal;HPM_P1;HPM_P2
2023/09/05 00:00:53;;;;;;;2.05;1.83;;;;;;;;;;10425094;22;20003;-61
2023/09/05 00:04:54;;;;;;;3.05;1.63;;;;;;;;;;10423442;22;20677;-60
2023/09/05 00:08:54;;;;;;;2.63;1.90;;;;;;;;;;10426090;22;19991;-61
2023/09/05 00:12:54;;;;;;;2.45;1.88;;;;;;;;;;10427141;22;19995;-61
2023/09/05 00:16:54;;;;;;;2.55;1.95;;;;;;;;;;10423296;22;20011;-61
2023/09/05 00:20:55;;;;;;;1.77;1.60;;;;;;;;;;10425059;22;20443;-61
2023/09/05 00:24:55;;;;;;;2.63;1.70;;;;;;;;;;10398639;22;20036;-61
2023/09/05 00:28:56;;;;;;;2.00;1.80;;;;;;;;;;10427623;22;20021;-61
2023/09/05 00:32:56;;;;;;;1.58;1.48;;;;;;;;;;10426146;22;20042;-61
2023/09/05 00:36:58;;;;;;;1.80;1.65;;;;;;;;;;10430120;22;20763;-60
2023/09/05 00:41:00;;;;;;;1.73;1.50;;;;;;;;;;10398012;22;20007;-60
2023/09/05 00:45:00;;;;;;;2.17;1.80;;;;;;;;;;10428295;22;19999;-64
2023/09/05 00:49:03;;;;;;;2.05;1.85;;;;;;;;;;10422684;22;20761;-60
2023/09/05 00:53:04;;;;;;;1.88;1.77;;;;;;;;;;10426414;22;20089;-60
2023/09/05 00:57:04;;;;;;;2.80;1.73;;;;;;;;;;10420350;22;20105;-60
2023/09/05 01:01:05;;;;;;;2.17;1.90;;;;;;;;;;10424227;22;20117;-60
2023/09/05 01:05:07;;;;;;;1.85;1.63;;;;;;;;;;10423101;22;20015;-60
2023/09/05 01:09:13;;;;;;;3.83;1.70;;;;;;;;;;10424838;22;20007;-60
2023/09/05 01:13:18;;;;;;;2.30;1.65;;;;;;;;;;10425353;22;20625;-61
2023/09/05 01:17:18;;;;;;;3.25;1.90;;;;;;;;;;10424506;22;20063;-61
2023/09/05 01:21:18;;;;;;;2.15;1.50;;;;;;;;;;10423324;22;20393;-61
2023/09/05 01:25:19;;;;;;;2.00;1.80;;;;;;;;;;10417174;22;20772;-60
2023/09/05 01:29:25;;;;;;;3.13;1.80;;;;;;;;;;10417763;22;20668;-60
2023/09/05 01:33:25;;;;;;;2.33;2.00;;;;;;;;;;10412896;22;20055;-60
2023/09/05 01:37:26;;;;;;;1.70;1.60;;;;;;;;;;10414130;22;20386;-60
2023/09/05 01:41:26;;;;;;;2.15;1.95;;;;;;;;;;10412911;22;20017;-61
2023/09/05 01:45:26;;;;;;;2.35;1.73;;;;;;;;;;10416527;22;20011;-61
2023/09/05 01:49:26;;;;;;;2.40;1.75;;;;;;;;;;10412680;22;20443;-61
2023/09/05 01:53:27;;;;;;;2.37;1.80;;;;;;;;;;10419474;22;20007;-61
2023/09/05 01:57:27;;;;;;;2.33;1.80;;;;;;;;;;10413714;22;20002;-63
2023/09/05 02:01:27;;;;;;;3.33;1.67;;;;;;;;;;10411320;22;20047;-60
2023/09/05 02:05:27;;;;;;;2.72;1.80;;;;;;;;;;10414563;22;20006;-61
2023/09/05 02:09:28;;;;;;;1.77;1.67;;;;;;;;;;10418117;22;19994;-61
2023/09/05 02:13:28;;;;;;;4.35;1.77;;;;;;;;;;10420266;22;20006;-61
2023/09/05 02:17:31;;;;;;;3.47;1.50;;;;;;;;;;10415552;22;20072;-60
2023/09/05 02:21:32;;;;;;;2.13;1.70;;;;;;;;;;10396410;22;20064;-60
2023/09/05 02:25:32;;;;;;;2.15;1.77;;;;;;;;;;10426729;22;20007;-61
2023/09/05 02:29:32;;;;;;;1.70;1.60;;;;;;;;;;10426814;22;20094;-61
2023/09/05 02:33:36;;;;;;;2.27;1.87;;;;;;;;;;10430657;22;20022;-61
2023/09/05 02:37:36;;;;;;;1.98;1.67;;;;;;;;;;10426753;22;20283;-61
2023/09/05 02:41:37;;;;;;;4.60;2.10;;;;;;;;;;10399759;22;20019;-61
2023/09/05 02:45:37;;;;;;;4.88;1.80;;;;;;;;;;10428762;22;20245;-61
2023/09/05 02:49:37;;;;;;;2.00;1.65;;;;;;;;;;10428500;22;19998;-60
2023/09/05 02:53:38;;;;;;;4.23;1.90;;;;;;;;;;10426487;22;20003;-61
2023/09/05 02:57:38;;;;;;;1.80;1.70;;;;;;;;;;10431408;22;20081;-61
2023/09/05 03:01:38;;;;;;;1.60;1.50;;;;;;;;;;10428860;22;20014;-60
2023/09/05 03:05:38;;;;;;;2.03;1.83;;;;;;;;;;10427986;22;20403;-60
2023/09/05 03:09:39;;;;;;;2.10;1.90;;;;;;;;;;10426285;22;20006;-61
2023/09/05 03:13:39;;;;;;;2.53;1.77;;;;;;;;;;10425924;22;20097;-60
2023/09/05 03:17:39;;;;;;;2.07;1.80;;;;;;;;;;10398805;22;20257;-60
2023/09/05 03:21:39;;;;;;;2.10;1.90;;;;;;;;;;10427172;22;20216;-60
2023/09/05 03:25:40;;;;;;;3.70;2.10;;;;;;;;;;10427364;22;20006;-61
2023/09/05 03:29:40;;;;;;;2.53;2.10;;;;;;;;;;10426806;22;20006;-60
2023/09/05 03:33:41;;;;;;;2.40;2.17;;;;;;;;;;10424449;22;20014;-60
2023/09/05 03:37:41;;;;;;;4.05;2.38;;;;;;;;;;10427102;22;20002;-61
2023/09/05 03:41:41;;;;;;;4.25;2.70;;;;;;;;;;10423783;22;19999;-61
2023/09/05 03:45:44;;;;;;;2.45;2.15;;;;;;;;;;10427401;22;20041;-60
2023/09/05 03:49:44;;;;;;;2.58;2.28;;;;;;;;;;10426908;22;20041;-61
2023/09/05 03:53:45;;;;;;;4.75;2.40;;;;;;;;;;10427205;22;20092;-60
2023/09/05 03:57:45;;;;;;;2.65;2.20;;;;;;;;;;10425935;22;19999;-61
2023/09/05 04:01:47;;;;;;;3.10;2.50;;;;;;;;;;10424354;22;20011;-60
2023/09/05 04:05:47;;;;;;;2.30;2.03;;;;;;;;;;10397368;22;20007;-61
2023/09/05 04:09:47;;;;;;;2.97;2.30;;;;;;;;;;10423722;22;20019;-61
2023/09/05 04:13:48;;;;;;;3.25;2.25;;;;;;;;;;10424990;22;20029;-61
2023/09/05 04:17:50;;;;;;;2.50;2.05;;;;;;;;;;10419804;22;20018;-61
2023/09/05 04:21:50;;;;;;;2.53;2.03;;;;;;;;;;10423518;22;20010;-60
2023/09/05 04:25:58;;;;;;;2.23;1.90;;;;;;;;;;10419985;22;19995;-61
2023/09/05 04:29:58;;;;;;;3.08;2.03;;;;;;;;;;10392867;22;20007;-62
2023/09/05 04:33:58;;;;;;;2.92;2.13;;;;;;;;;;10424592;22;20046;-61
2023/09/05 04:37:59;;;;;;;2.63;2.20;;;;;;;;;;10407523;22;20006;-62
2023/09/05 04:41:59;;;;;;;3.00;2.42;;;;;;;;;;10408365;22;20176;-61
2023/09/05 04:45:59;;;;;;;2.60;2.07;;;;;;;;;;10412921;22;20014;-61
2023/09/05 04:49:59;;;;;;;4.68;2.03;;;;;;;;;;10415107;22;20063;-62
2023/09/05 04:54:00;;;;;;;2.40;2.20;;;;;;;;;;10390761;22;20060;-61
2023/09/05 04:58:00;;;;;;;4.03;2.22;;;;;;;;;;10417060;22;20209;-61
2023/09/05 05:02:00;;;;;;;2.43;2.23;;;;;;;;;;10412718;22;20065;-61
2023/09/05 05:06:02;;;;;;;2.92;2.20;;;;;;;;;;10410567;22;20506;-61
2023/09/05 05:10:03;;;;;;;3.50;1.73;;;;;;;;;;10411669;22;19998;-61
2023/09/05 05:14:03;;;;;;;3.42;2.20;;;;;;;;;;10409397;22;20003;-62
2023/09/05 05:18:04;;;;;;;4.50;2.07;;;;;;;;;;10404450;22;20829;-61
2023/09/05 05:22:05;;;;;;;3.10;2.00;;;;;;;;;;10417166;22;19999;-61
2023/09/05 05:26:06;;;;;;;2.38;2.05;;;;;;;;;;10424012;22;20003;-62
2023/09/05 05:30:06;;;;;;;2.30;2.10;;;;;;;;;;10422097;22;20035;-62
2023/09/05 05:34:07;;;;;;;4.43;1.98;;;;;;;;;;10424801;22;20084;-61
2023/09/05 05:38:07;;;;;;;2.10;1.90;;;;;;;;;;10424908;22;19999;-61
2023/09/05 05:42:07;;;;;;;2.37;1.90;;;;;;;;;;10400369;22;20007;-61
2023/09/05 05:46:09;;;;;;;4.15;2.35;;;;;;;;;;10427039;22;20126;-61
2023/09/05 05:50:09;;;;;;;2.63;2.00;;;;;;;;;;10428849;22;20006;-61
2023/09/05 05:54:10;;;;;;;3.78;1.80;;;;;;;;;;10429007;22;19999;-62
2023/09/05 05:58:10;;;;;;;3.63;1.97;;;;;;;;;;10427640;22;20762;-62
2023/09/05 06:02:10;;;;;;;3.13;1.95;;;;;;;;;;10428951;22;20336;-61
2023/09/05 06:06:10;;;;;;;2.22;1.80;;;;;;;;;;10429532;22;20089;-62
2023/09/05 06:10:10;;;;;;;4.60;2.38;;;;;;;;;;10429348;22;19994;-62
2023/09/05 06:14:12;;;;;;;4.70;2.20;;;;;;;;;;10432017;22;20035;-62
2023/09/05 06:18:12;;;;;;;2.72;1.90;;;;;;;;;;10431108;22;20006;-62
2023/09/05 06:22:13;;;;;;;6.30;1.90;;;;;;;;;;10429980;22;20113;-62
2023/09/05 06:26:13;;;;;;;2.17;1.77;;;;;;;;;;10427015;22;20019;-63
2023/09/05 06:30:13;;;;;;;2.88;2.08;;;;;;;;;;10429437;22;20002;-62
2023/09/05 06:34:14;;;;;;;1.85;1.75;;;;;;;;;;10428440;22;19994;-62
2023/09/05 06:38:14;;;;;;;3.00;2.22;;;;;;;;;;10430980;22;20050;-62
2023/09/05 06:42:16;;;;;;;5.13;2.10;;;;;;;;;;10432394;22;20438;-62
2023/09/05 06:46:16;;;;;;;2.55;1.88;;;;;;;;;;10428027;22;20015;-62
2023/09/05 06:50:17;;;;;;;2.20;1.95;;;;;;;;;;10425968;22;20879;-62
2023/09/05 06:54:17;;;;;;;3.17;2.08;;;;;;;;;;10427083;22;20407;-63
2023/09/05 06:58:18;;;;;;;2.65;1.90;;;;;;;;;;10429613;22;20002;-62
2023/09/05 07:02:18;;;;;;;1.83;1.70;;;;;;;;;;10428438;22;20022;-63
2023/09/05 07:06:19;;;;;;;3.40;2.10;;;;;;;;;;10430909;22;20306;-63
2023/09/05 07:10:20;;;;;;;3.30;1.90;;;;;;;;;;10425491;22;20601;-62
2023/09/05 07:14:20;;;;;;;4.05;1.75;;;;;;;;;;10430719;22;19998;-62
2023/09/05 07:18:20;;;;;;;1.92;1.70;;;;;;;;;;10426467;22;20017;-62
2023/09/05 07:22:22;;;;;;;2.22;1.60;;;;;;;;;;10429656;22;20419;-62
2023/09/05 07:26:22;;;;;;;4.05;2.00;;;;;;;;;;10427770;22;20037;-62
2023/09/05 07:30:22;;;;;;;2.00;1.73;;;;;;;;;;10428827;22;22280;-62
2023/09/05 07:34:22;;;;;;;2.60;2.00;;;;;;;;;;10430741;22;20003;-62
2023/09/05 07:38:23;;;;;;;1.70;1.60;;;;;;;;;;10430775;22;20041;-62
2023/09/05 07:42:23;;;;;;;6.27;2.00;;;;;;;;;;10430718;22;20010;-62
2023/09/05 07:46:23;;;;;;;8.07;2.00;;;;;;;;;;10427707;22;20014;-62
2023/09/05 07:50:24;;;;;;;24.23;2.60;;;;;;;;;;10429216;22;20065;-62
2023/09/05 07:54:25;;;;;;;4.17;2.23;;;;;;;;;;10429812;22;20220;-62
2023/09/05 07:58:26;;;;;;;13.83;1.90;;;;;;;;;;10431501;22;20819;-62
2023/09/05 08:02:27;;;;;;;7.10;1.92;;;;;;;;;;10428133;22;20034;-62
2023/09/05 08:06:28;;;;;;;4.80;1.90;;;;;;;;;;10428888;22;20002;-62
2023/09/05 08:10:28;;;;;;;8.20;1.87;;;;;;;;;;10428019;22;20072;-62
2023/09/05 08:14:29;;;;;;;3.60;1.80;;;;;;;;;;10429819;22;20613;-63
2023/09/05 08:18:29;;;;;;;3.22;1.65;;;;;;;;;;10429143;22;20460;-62
2023/09/05 08:22:29;;;;;;;5.30;1.77;;;;;;;;;;10429569;22;20412;-62
2023/09/05 08:26:29;;;;;;;2.72;1.67;;;;;;;;;;10430063;22;20060;-62
2023/09/05 08:30:30;;;;;;;2.70;1.50;;;;;;;;;;10430418;22;20061;-62
2023/09/05 08:34:30;;;;;;;2.63;1.60;;;;;;;;;;10430620;22;20006;-62
2023/09/05 08:38:30;;;;;;;2.45;1.80;;;;;;;;;;10430240;22;20232;-62
2023/09/05 08:42:31;;;;;;;2.22;1.70;;;;;;;;;;10428614;22;20874;-62
2023/09/05 08:46:31;;;;;;;2.47;1.90;;;;;;;;;;10430909;22;20826;-62
2023/09/05 08:50:33;;;;;;;1.93;1.70;;;;;;;;;;10429436;22;19998;-62
2023/09/05 08:54:33;;;;;;;19.93;2.20;;;;;;;;;;10429102;22;20002;-62
2023/09/05 08:58:35;;;;;;;5.40;2.30;;;;;;;;;;10428697;22;19999;-62
2023/09/05 09:02:38;;;;;;;5.25;1.90;;;;;;;;;;10427471;22;20015;-62
2023/09/05 09:06:38;;;;;;;3.58;1.60;;;;;;;;;;10430539;22;20097;-62
2023/09/05 09:10:38;;;;;;;2.08;1.90;;;;;;;;;;10430430;22;20643;-62
2023/09/05 09:14:39;;;;;;;4.05;1.65;;;;;;;;;;10429572;22;20499;-62
2023/09/05 09:18:41;;;;;;;2.60;1.80;;;;;;;;;;10430643;22;20090;-62
2023/09/05 09:22:41;;;;;;;;;;;;;;;;;;10431500;22;20068;-62
2023/09/05 09:26:42;;;;;;;2.13;1.80;;;;;;;;;;10430018;22;19934;-62
2023/09/05 09:30:44;;;;;;;3.20;1.90;;;;;;;;;;10430117;22;20460;-62
2023/09/05 09:34:44;;;;;;;7.57;2.17;;;;;;;;;;10431884;22;20678;-62
2023/09/05 09:38:44;;;;;;;3.03;2.00;;;;;;;;;;10432116;22;20648;-62
2023/09/05 09:42:48;;;;;;;3.60;2.10;;;;;;;;;;10434211;22;20105;-62
2023/09/05 09:46:49;;;;;;;5.43;2.13;;;;;;;;;;10432044;22;20018;-62
2023/09/05 09:50:49;;;;;;;2.92;1.95;;;;;;;;;;10430799;22;20006;-62
2023/09/05 09:54:53;;;;;;;4.70;2.20;;;;;;;;;;10431975;22;20785;-61
2023/09/05 09:58:56;;;;;;;4.05;2.00;;;;;;;;;;10432421;22;19995;-62
2023/09/05 10:02:58;;;;;;;3.08;1.80;;;;;;;;;;10430236;22;20019;-62
2023/09/05 10:06:58;;;;;;;4.35;2.10;;;;;;;;;;10431461;22;20011;-62
2023/09/05 10:10:59;;;;;;;3.13;1.90;;;;;;;;;;10429782;22;19994;-62
2023/09/05 10:15:01;;;;;;;3.85;2.05;;;;;;;;;;10430690;22;20029;-62
2023/09/05 10:19:02;;;;;;;3.73;1.93;;;;;;;;;;10430364;22;20018;-62
2023/09/05 10:23:05;;;;;;;2.58;1.80;;;;;;;;;;10431551;22;20301;-62
2023/09/05 10:27:05;;;;;;;4.07;2.13;;;;;;;;;;10430864;22;20080;-61
2023/09/05 10:31:07;;;;;;;3.67;1.88;;;;;;;;;;10428762;22;20011;-62
2023/09/05 10:35:07;;;;;;;11.15;2.40;;;;;;;;;;10430126;22;20002;-62
2023/09/05 10:39:27;;;;;;;3.78;1.70;;;;;;;;;;10431623;22;20083;-62
2023/09/05 10:43:28;;;;;;;11.52;2.03;;;;;;;;;;10430823;22;20037;-61
2023/09/05 10:47:29;;;;;;;3.35;1.85;;;;;;;;;;10429265;22;20369;-61
2023/09/05 10:51:30;;;;;;;2.45;2.00;;;;;;;;;;10429402;22;19999;-62
2023/09/05 10:55:32;;;;;;;2.10;1.90;;;;;;;;;;10429514;22;20084;-62
2023/09/05 10:59:32;;;;;;;3.15;1.80;;;;;;;;;;10429277;22;20225;-62
2023/09/05 11:03:36;;;;;;;3.22;1.60;;;;;;;;;;10428404;22;20026;-62
2023/09/05 11:07:42;;;;;;;2.08;1.80;;;;;;;;;;10429574;22;19999;-62
2023/09/05 11:11:45;;;;;;;3.30;1.73;;;;;;;;;;10429691;22;20053;-62
2023/09/05 11:15:45;;;;;;;2.35;1.60;;;;;;;;;;10429848;22;20321;-62
2023/09/05 11:19:47;;;;;;;2.25;1.80;;;;;;;;;;10430473;22;20027;-64
2023/09/05 11:23:51;;;;;;;2.97;1.95;;;;;;;;;;10431036;22;19999;-62
2023/09/05 11:27:58;;;;;;;3.13;1.70;;;;;;;;;;10430029;22;19995;-61
2023/09/05 11:31:59;;;;;;;2.42;1.70;;;;;;;;;;10428541;22;20007;-62
2023/09/05 11:36:03;;;;;;;2.13;1.60;;;;;;;;;;10429558;22;20011;-62
2023/09/05 11:40:11;;;;;;;4.30;1.90;;;;;;;;;;10428343;22;20224;-62
2023/09/05 11:44:11;;;;;;;2.33;1.90;;;;;;;;;;10430489;22;20002;-62
2023/09/05 11:48:12;;;;;;;1.98;1.77;;;;;;;;;;10427147;22;20022;-62
2023/09/05 11:52:13;;;;;;;2.75;1.58;;;;;;;;;;10428572;22;20005;-62
2023/09/05 11:56:13;;;;;;;2.88;1.55;;;;;;;;;;10427548;22;19998;-62
2023/09/05 12:00:15;;;;;;;3.50;1.77;;;;;;;;;;10428640;22;20003;-62
2023/09/05 12:04:16;;;;;;;2.45;1.80;;;;;;;;;;10420977;22;20011;-62
2023/09/05 12:08:17;;;;;;;3.33;1.70;;;;;;;;;;10424440;22;20041;-62
2023/09/05 12:12:18;;;;;;;2.35;1.50;;;;;;;;;;10425913;22;20766;-62
2023/09/05 12:16:19;;;;;;;3.13;1.52;;;;;;;;;;10427446;22;20010;-62
2023/09/05 12:20:19;;;;;;;3.88;1.40;;;;;;;;;;10426901;22;20090;-62
2023/09/05 12:24:21;;;;;;;2.00;1.60;;;;;;;;;;10427108;22;20011;-61
2023/09/05 12:28:22;;;;;;;4.43;1.30;;;;;;;;;;10426547;22;19998;-61
2023/09/05 12:32:28;;;;;;;2.50;1.60;;;;;;;;;;10423709;22;20022;-62
2023/09/05 12:36:29;;;;;;;4.07;1.60;;;;;;;;;;10425874;22;20453;-62
2023/09/05 12:40:32;;;;;;;7.13;1.60;;;;;;;;;;10423030;22;20014;-62
2023/09/05 12:44:33;;;;;;;2.30;1.55;;;;;;;;;;10425711;22;20483;-62
2023/09/05 12:48:33;;;;;;;3.55;1.63;;;;;;;;;;10424704;22;20015;-62
2023/09/05 12:52:33;;;;;;;3.13;1.50;;;;;;;;;;10425799;22;20001;-62
2023/09/05 12:56:33;;;;;;;2.50;1.60;;;;;;;;;;10425042;22;20801;-62
2023/09/05 13:00:34;;;;;;;1.40;1.30;;;;;;;;;;10419276;22;20233;-62
2023/09/05 13:04:37;;;;;;;1.33;1.23;;;;;;;;;;10389925;22;20015;-62
2023/09/05 13:08:37;;;;;;;2.65;1.40;;;;;;;;;;10415074;22;19995;-61
2023/09/05 13:12:38;;;;;;;1.63;1.40;;;;;;;;;;10420178;22;20013;-62
2023/09/05 13:16:39;;;;;;;1.55;1.45;;;;;;;;;;10421049;22;20103;-62
2023/09/05 13:20:39;;;;;;;3.53;1.40;;;;;;;;;;10421303;22;20003;-62
2023/09/05 13:24:40;;;;;;;1.50;1.40;;;;;;;;;;10422580;22;19999;-62
2023/09/05 13:28:40;;;;;;;4.80;1.40;;;;;;;;;;10422971;22;20001;-62
2023/09/05 13:32:40;;;;;;;2.28;1.50;;;;;;;;;;10414464;22;20736;-62
2023/09/05 13:36:40;;;;;;;2.90;1.50;;;;;;;;;;10413817;22;20003;-62
2023/09/05 13:40:41;;;;;;;7.15;1.40;;;;;;;;;;10417876;22;20006;-62
2023/09/05 13:44:41;;;;;;;2.17;1.30;;;;;;;;;;10420302;22;20423;-62
2023/09/05 13:48:41;;;;;;;5.80;1.65;;;;;;;;;;10416285;22;20753;-62
2023/09/05 13:52:42;;;;;;;1.50;1.40;;;;;;;;;;10420018;22;20075;-62
2023/09/05 13:56:42;;;;;;;3.30;1.33;;;;;;;;;;10418108;22;20010;-62
2023/09/05 14:00:43;;;;;;;1.40;1.30;;;;;;;;;;10419178;22;20339;-62
2023/09/05 14:04:43;;;;;;;2.55;1.33;;;;;;;;;;10422734;22;20122;-62
2023/09/05 14:08:43;;;;;;;2.45;1.48;;;;;;;;;;10424339;22;20153;-62
2023/09/05 14:12:44;;;;;;;1.80;1.40;;;;;;;;;;10420665;22;19999;-62
2023/09/05 14:16:44;;;;;;;1.40;1.30;;;;;;;;;;10423029;22;20047;-62
2023/09/05 14:20:44;;;;;;;1.40;1.20;;;;;;;;;;10424775;22;20605;-62
2023/09/05 14:24:44;;;;;;;4.32;1.50;;;;;;;;;;10424769;22;20469;-62
2023/09/05 14:28:45;;;;;;;2.53;1.50;;;;;;;;;;10422668;22;20332;-62
2023/09/05 14:32:45;;;;;;;1.52;1.42;;;;;;;;;;10422758;22;20011;-62
2023/09/05 14:36:45;;;;;;;3.90;1.47;;;;;;;;;;10424281;22;20013;-62
2023/09/05 14:40:45;;;;;;;4.95;1.52;;;;;;;;;;10421910;22;20010;-61
2023/09/05 14:44:46;;;;;;;1.70;1.30;;;;;;;;;;10397467;22;20369;-62
2023/09/05 14:48:46;;;;;;;2.05;1.60;;;;;;;;;;10420948;22;20018;-61
2023/09/05 14:52:46;;;;;;;2.78;1.23;;;;;;;;;;10425092;22;20006;-62
2023/09/05 14:56:50;;;;;;;2.67;1.40;;;;;;;;;;10421073;22;20261;-61
2023/09/05 15:00:50;;;;;;;3.42;1.27;;;;;;;;;;10424017;22;20109;-62
2023/09/05 15:04:50;;;;;;;4.55;1.50;;;;;;;;;;10423459;22;20757;-61
2023/09/05 15:08:50;;;;;;;4.95;1.30;;;;;;;;;;10423786;22;20006;-62
2023/09/05 15:12:51;;;;;;;3.90;1.30;;;;;;;;;;10422010;22;20029;-62
2023/09/05 15:16:56;;;;;;;1.40;1.30;;;;;;;;;;10422183;22;20037;-63
2023/09/05 15:20:56;;;;;;;2.38;1.52;;;;;;;;;;10393018;22;20003;-62
2023/09/05 15:24:58;;;;;;;1.40;1.30;;;;;;;;;;10423537;22;20675;-61
2023/09/05 15:28:58;;;;;;;1.83;1.20;;;;;;;;;;10425699;22;20002;-61
2023/09/05 15:32:59;;;;;;;3.13;1.15;;;;;;;;;;10419012;22;20098;-61
2023/09/05 15:36:59;;;;;;;2.10;1.30;;;;;;;;;;10421572;22;20002;-61
2023/09/05 15:40:59;;;;;;;3.20;1.50;;;;;;;;;;10422700;22;20568;-63
2023/09/05 15:45:00;;;;;;;1.30;1.20;;;;;;;;;;10422148;22;20765;-61
2023/09/05 15:49:00;;;;;;;3.00;1.53;;;;;;;;;;10418878;22;20436;-62
2023/09/05 15:53:00;;;;;;;1.30;1.20;;;;;;;;;;10417666;22;20046;-61
2023/09/05 15:57:00;;;;;;;1.33;1.27;;;;;;;;;;10418229;22;20068;-62
2023/09/05 16:01:01;;;;;;;2.43;1.20;;;;;;;;;;10415591;22;20498;-61
2023/09/05 16:05:01;;;;;;;1.93;1.43;;;;;;;;;;10420981;22;20003;-61
2023/09/05 16:09:01;;;;;;;3.80;1.30;;;;;;;;;;10419952;22;20240;-61
2023/09/05 16:13:04;;;;;;;4.43;1.40;;;;;;;;;;10419945;22;20009;-61
2023/09/05 16:17:06;;;;;;;1.38;1.13;;;;;;;;;;10416055;22;20007;-61
2023/09/05 16:21:07;;;;;;;1.98;1.20;;;;;;;;;;10418063;22;20725;-61
2023/09/05 16:25:10;;;;;;;1.10;1.10;;;;;;;;;;10417841;22;20453;-61
2023/09/05 16:29:10;;;;;;;4.35;1.30;;;;;;;;;;10418573;22;19995;-61
2023/09/05 16:33:10;;;;;;;2.35;1.00;;;;;;;;;;10418338;22;20010;-61
2023/09/05 16:37:14;;;;;;;2.87;1.23;;;;;;;;;;10389575;22;20007;-62
2023/09/05 16:41:15;;;;;;;1.42;1.25;;;;;;;;;;10418061;22;20042;-62
2023/09/05 16:45:15;;;;;;;4.68;1.40;;;;;;;;;;10418760;22;20010;-62
2023/09/05 16:49:16;;;;;;;3.28;1.48;;;;;;;;;;10417818;22;20002;-61
2023/09/05 16:53:16;;;;;;;1.45;1.10;;;;;;;;;;10418518;22;20064;-61
2023/09/05 16:57:16;;;;;;;2.57;1.20;;;;;;;;;;10420331;22;20487;-61
2023/09/05 17:01:16;;;;;;;2.22;1.50;;;;;;;;;;10416412;22;20011;-61
2023/09/05 17:05:17;;;;;;;1.20;1.10;;;;;;;;;;10418531;22;20060;-61
2023/09/05 17:09:17;;;;;;;2.70;1.30;;;;;;;;;;10415079;22;20056;-61
2023/09/05 17:13:17;;;;;;;1.30;1.20;;;;;;;;;;10390237;22;20014;-61
2023/09/05 17:17:17;;;;;;;2.53;1.30;;;;;;;;;;10415944;22;20333;-61
2023/09/05 17:21:19;;;;;;;2.15;1.30;;;;;;;;;;10417121;22;20010;-61
2023/09/05 17:25:19;;;;;;;1.30;1.20;;;;;;;;;;10416380;22;19999;-61
2023/09/05 17:29:19;;;;;;;1.52;1.13;;;;;;;;;;10417714;22;20715;-61
2023/09/05 17:33:19;;;;;;;3.25;1.30;;;;;;;;;;10417515;22;20018;-62
2023/09/05 17:37:20;;;;;;;1.30;1.17;;;;;;;;;;10420593;22;20007;-61
2023/09/05 17:41:20;;;;;;;2.70;1.20;;;;;;;;;;10417572;22;20534;-61
2023/09/05 17:45:20;;;;;;;1.40;1.20;;;;;;;;;;10419147;22;20006;-61
2023/09/05 17:49:21;;;;;;;1.67;1.50;;;;;;;;;;10417998;22;20001;-61
2023/09/05 17:53:21;;;;;;;5.60;1.20;;;;;;;;;;10418916;22;20063;-61
2023/09/05 17:57:22;;;;;;;1.50;1.40;;;;;;;;;;10388534;22;20010;-62
2023/09/05 18:01:22;;;;;;;1.30;1.20;;;;;;;;;;10416923;22;20014;-62
2023/09/05 18:05:22;;;;;;;1.50;1.40;;;;;;;;;;10420893;22;20046;-61
2023/09/05 18:09:22;;;;;;;4.93;1.20;;;;;;;;;;10417132;22;20006;-61
2023/09/05 18:13:22;;;;;;;2.55;1.20;;;;;;;;;;10418745;22;20022;-61
2023/09/05 18:17:22;;;;;;;3.58;1.38;;;;;;;;;;10419350;22;20029;-61
2023/09/05 18:21:23;;;;;;;4.25;1.20;;;;;;;;;;10423580;22;19995;-62
2023/09/05 18:25:23;;;;;;;2.65;1.30;;;;;;;;;;10418120;22;20410;-61
2023/09/05 18:29:24;;;;;;;6.30;1.40;;;;;;;;;;10420578;22;19999;-62
2023/09/05 18:33:25;;;;;;;2.45;1.50;;;;;;;;;;10421575;22;20225;-62
2023/09/05 18:37:25;;;;;;;1.93;1.40;;;;;;;;;;10411191;22;20110;-61
2023/09/05 18:41:26;;;;;;;2.20;1.23;;;;;;;;;;10419698;22;20015;-62
2023/09/05 18:45:28;;;;;;;4.93;1.60;;;;;;;;;;10420691;22;20019;-61
2023/09/05 18:49:31;;;;;;;2.47;1.27;;;;;;;;;;10418971;22;20303;-61
2023/09/05 18:53:32;;;;;;;;;;;;;;;;;;10418886;22;20411;-61
2023/09/05 18:57:32;;;;;;;2.15;1.17;;;;;;;;;;10418239;22;19993;-61
2023/09/05 19:01:32;;;;;;;2.25;1.40;;;;;;;;;;10416032;22;20034;-62
2023/09/05 19:05:35;;;;;;;2.50;1.30;;;;;;;;;;10421089;22;20099;-62
2023/09/05 19:09:38;;;;;;;4.60;1.40;;;;;;;;;;10421480;22;20009;-61
2023/09/05 19:13:38;;;;;;;3.37;1.60;;;;;;;;;;10423107;22;19998;-62
2023/09/05 19:17:40;;;;;;;2.05;1.40;;;;;;;;;;10417123;22;20015;-61
2023/09/05 19:21:40;;;;;;;1.52;1.42;;;;;;;;;;10419757;22;20002;-63
2023/09/05 19:25:40;;;;;;;3.03;1.50;;;;;;;;;;10399471;22;20444;-62
2023/09/05 19:29:41;;;;;;;3.05;1.40;;;;;;;;;;10420985;22;19999;-62
2023/09/05 19:33:41;;;;;;;3.40;1.13;;;;;;;;;;10392600;22;20022;-62
2023/09/05 19:37:42;;;;;;;1.42;1.33;;;;;;;;;;10423413;22;19995;-62
2023/09/05 19:41:42;;;;;;;4.78;1.50;;;;;;;;;;10419659;22;20093;-62
2023/09/05 19:45:43;;;;;;;1.38;1.27;;;;;;;;;;10420682;22;20096;-62
2023/09/05 19:49:43;;;;;;;3.05;1.40;;;;;;;;;;10417998;22;20096;-61
2023/09/05 19:53:44;;;;;;;4.45;1.58;;;;;;;;;;10423216;22;20179;-62
2023/09/05 19:57:44;;;;;;;7.90;1.50;;;;;;;;;;10419512;22;20003;-60
2023/09/05 20:01:44;;;;;;;1.75;1.45;;;;;;;;;;10418066;22;20046;-61
2023/09/05 20:05:44;;;;;;;1.63;1.52;;;;;;;;;;10418159;22;20013;-62
2023/09/05 20:09:45;;;;;;;1.45;1.35;;;;;;;;;;10417573;22;19998;-62
2023/09/05 20:13:45;;;;;;;4.45;1.23;;;;;;;;;;10420869;22;20007;-62
2023/09/05 20:17:45;;;;;;;1.42;1.33;;;;;;;;;;10417476;22;20014;-61
2023/09/05 20:21:45;;;;;;;2.05;1.40;;;;;;;;;;10418773;22;20463;-61
2023/09/05 20:25:47;;;;;;;1.50;1.27;;;;;;;;;;10421603;22;20847;-61
2023/09/05 20:29:47;;;;;;;1.50;1.30;;;;;;;;;;10422414;22;20001;-61
2023/09/05 20:33:47;;;;;;;1.50;1.40;;;;;;;;;;10419884;22;20507;-63
2023/09/05 20:37:47;;;;;;;2.20;1.48;;;;;;;;;;10416614;22;20654;-62
2023/09/05 20:41:48;;;;;;;2.00;1.52;;;;;;;;;;10419606;22;20001;-63
2023/09/05 20:45:48;;;;;;;2.67;1.42;;;;;;;;;;10418668;22;20069;-63
2023/09/05 20:49:48;;;;;;;2.45;1.45;;;;;;;;;;10422256;22;19995;-62
2023/09/05 20:53:48;;;;;;;2.83;1.43;;;;;;;;;;10419468;22;20180;-62
2023/09/05 20:57:49;;;;;;;3.50;1.63;;;;;;;;;;10421825;22;21071;-62
2023/09/05 21:01:49;;;;;;;2.92;1.48;;;;;;;;;;10418561;22;20233;-62
2023/09/05 21:05:49;;;;;;;3.25;1.50;;;;;;;;;;10422276;22;20068;-62
2023/09/05 21:09:49;;;;;;;2.40;1.52;;;;;;;;;;10426123;22;20785;-62
2023/09/05 21:13:50;;;;;;;3.72;1.50;;;;;;;;;;10423039;22;20383;-62
2023/09/05 21:17:50;;;;;;;2.27;1.43;;;;;;;;;;10425110;22;20015;-62
2023/09/05 21:21:50;;;;;;;1.63;1.27;;;;;;;;;;10427631;22;19998;-62
2023/09/05 21:25:50;;;;;;;1.80;1.50;;;;;;;;;;10428931;22;20002;-62
2023/09/05 21:29:51;;;;;;;1.83;1.50;;;;;;;;;;10428555;22;20003;-63
2023/09/05 21:33:52;;;;;;;1.92;1.50;;;;;;;;;;10426796;22;20033;-62
2023/09/05 21:37:52;;;;;;;1.40;1.30;;;;;;;;;;10429149;22;19998;-62
2023/09/05 21:41:53;;;;;;;3.78;1.70;;;;;;;;;;10400022;22;20498;-63
2023/09/05 21:45:53;;;;;;;1.95;1.50;;;;;;;;;;10426695;22;20022;-62
2023/09/05 21:49:53;;;;;;;3.83;1.87;;;;;;;;;;10426106;22;20053;-61
2023/09/05 21:53:53;;;;;;;1.92;1.70;;;;;;;;;;10430142;22;20225;-63
2023/09/05 21:57:54;;;;;;;2.63;1.70;;;;;;;;;;10427246;22;20022;-62
2023/09/05 22:01:54;;;;;;;4.68;1.80;;;;;;;;;;10421769;22;20011;-62
2023/09/05 22:05:54;;;;;;;4.50;1.85;;;;;;;;;;10427263;22;20003;-62
2023/09/05 22:09:54;;;;;;;6.93;1.65;;;;;;;;;;10425166;22;20040;-62
2023/09/05 22:13:55;;;;;;;1.83;1.53;;;;;;;;;;10425741;22;20060;-63
2023/09/05 22:17:55;;;;;;;2.85;1.38;;;;;;;;;;10424814;22;20015;-62
2023/09/05 22:21:58;;;;;;;2.00;1.33;;;;;;;;;;10425821;22;20010;-62
2023/09/05 22:25:58;;;;;;;2.08;1.55;;;;;;;;;;10432689;22;20002;-62
2023/09/05 22:29:58;;;;;;;2.60;1.90;;;;;;;;;;10428851;22;20033;-62
2023/09/05 22:34:02;;;;;;;1.60;1.50;;;;;;;;;;10430409;22;20017;-62
2023/09/05 22:38:03;;;;;;;3.35;1.55;;;;;;;;;;10400955;22;20010;-62
2023/09/05 22:42:03;;;;;;;2.17;1.70;;;;;;;;;;10430387;22;20022;-62
2023/09/05 22:46:04;;;;;;;4.87;1.60;;;;;;;;;;10429273;22;20356;-62
2023/09/05 22:50:07;;;;;;;2.47;1.52;;;;;;;;;;10429108;22;20236;-62
2023/09/05 22:54:08;;;;;;;2.75;1.60;;;;;;;;;;10427567;22;19999;-62
2023/09/05 22:58:08;;;;;;;1.90;1.67;;;;;;;;;;10429541;22;20292;-62
2023/09/05 23:02:08;;;;;;;1.60;1.50;;;;;;;;;;10428673;22;20011;-63
2023/09/05 23:06:09;;;;;;;1.67;1.58;;;;;;;;;;10432315;22;20003;-62
2023/09/05 23:10:10;;;;;;;3.55;1.73;;;;;;;;;;10427972;22;20435;-62
2023/09/05 23:14:11;;;;;;;1.83;1.60;;;;;;;;;;10429976;22;20003;-62
2023/09/05 23:18:11;;;;;;;4.70;1.60;;;;;;;;;;10428023;22;20702;-62
2023/09/05 23:22:11;;;;;;;2.95;1.50;;;;;;;;;;10397551;22;20010;-62
2023/09/05 23:26:11;;;;;;;1.63;1.52;;;;;;;;;;10428198;22;20035;-62
2023/09/05 23:30:13;;;;;;;1.77;1.67;;;;;;;;;;10430691;22;20079;-62
2023/09/05 23:34:13;;;;;;;3.90;1.60;;;;;;;;;;10428854;22;20078;-62
2023/09/05 23:38:14;;;;;;;2.08;1.60;;;;;;;;;;10428753;22;20021;-62
2023/09/05 23:42:14;;;;;;;1.60;1.50;;;;;;;;;;10428759;22;20010;-63